sensor_id;sensor_type;location;lat;lon;timestamp;P1;durP1;ratioP1;P2;durP2;ratioP2
37239;SDS011;23130;48.760;9.178;2023-02-01T00:01:50;7.07;;;3.25;;
37239;SDS011;23130;48.760;9.178;2023-02-01T00:04:16;6.05;;;3.35;;
37239;SDS011;23130;48.760;9.178;2023-02-01T00:06:41;8.13;;;3.65;;
37239;SDS011;23130;48.760;9.178;2023-02-01T00:09:07;5.70;;;3.30;;
37239;SDS011;23130;48.760;9.178;2023-02-01T00:11:32;4.72;;;3.15;;
37239;SDS011;23130;48.760;9.178;2023-02-01T00:13:58;6.35;;;3.20;;
37239;SDS011;23130;48.760;9.178;2023-02-01T00:16:25;4.10;;;2.97;;
37239;SDS011;23130;48.760;9.178;2023-02-01T00:18:56;4.50;;;2.55;;
37239;SDS011;23130;48.760;9.178;2023-02-01T00:21:24;5.68;;;2.83;;
37239;SDS011;23130;48.760;9.178;2023-02-01T00:23:50;5.60;;;2.70;;
37239;SDS011;23130;48.760;9.178;2023-02-01T00:26:23;5.78;;;2.60;;
37239;SDS011;23130;48.760;9.178;2023-02-01T00:28:55;3.83;;;2.40;;
37239;SDS011;23130;48.760;9.178;2023-02-01T00:31:20;4.10;;;2.67;;
37239;SDS011;23130;48.760;9.178;2023-02-01T00:33:46;4.40;;;2.42;;
37239;SDS011;23130;48.760;9.178;2023-02-01T00:36:13;4.57;;;2.20;;
37239;SDS011;23130;48.760;9.178;2023-02-01T00:38:39;5.20;;;2.75;;
37239;SDS011;23130;48.760;9.178;2023-02-01T00:41:12;4.82;;;3.10;;
37239;SDS011;23130;48.760;9.178;2023-02-01T00:43:40;5.53;;;2.83;;
37239;SDS011;23130;48.760;9.178;2023-02-01T00:46:06;4.95;;;2.50;;
37239;SDS011;23130;48.760;9.178;2023-02-01T00:48:32;4.63;;;2.20;;
37239;SDS011;23130;48.760;9.178;2023-02-01T00:51:01;5.68;;;2.25;;
37239;SDS011;23130;48.760;9.178;2023-02-01T00:53:28;5.75;;;3.20;;
37239;SDS011;23130;48.760;9.178;2023-02-01T00:55:54;3.30;;;1.90;;
37239;SDS011;23130;48.760;9.178;2023-02-01T00:58:19;4.35;;;2.35;;
37239;SDS011;23130;48.760;9.178;2023-02-01T01:00:45;5.40;;;2.03;;
37239;SDS011;23130;48.760;9.178;2023-02-01T01:03:11;5.05;;;2.55;;
37239;SDS011;23130;48.760;9.178;2023-02-01T01:05:46;3.45;;;1.80;;
37239;SDS011;23130;48.760;9.178;2023-02-01T01:08:13;5.10;;;1.88;;
37239;SDS011;23130;48.760;9.178;2023-02-01T01:10:39;4.50;;;2.10;;
37239;SDS011;23130;48.760;9.178;2023-02-01T01:13:05;4.43;;;1.85;;
37239;SDS011;23130;48.760;9.178;2023-02-01T01:15:35;5.15;;;1.92;;
37239;SDS011;23130;48.760;9.178;2023-02-01T01:18:01;2.92;;;1.70;;
37239;SDS011;23130;48.760;9.178;2023-02-01T01:20:27;2.50;;;1.35;;
37239;SDS011;23130;48.760;9.178;2023-02-01T01:22:53;2.65;;;1.48;;
37239;SDS011;23130;48.760;9.178;2023-02-01T01:25:18;3.97;;;2.03;;
37239;SDS011;23130;48.760;9.178;2023-02-01T01:27:44;2.70;;;1.52;;
37239;SDS011;23130;48.760;9.178;2023-02-01T01:30:09;5.20;;;1.88;;
37239;SDS011;23130;48.760;9.178;2023-02-01T01:32:35;2.92;;;1.58;;
37239;SDS011;23130;48.760;9.178;2023-02-01T01:35:01;3.00;;;1.48;;
37239;SDS011;23130;48.760;9.178;2023-02-01T01:37:26;3.75;;;1.90;;
37239;SDS011;23130;48.760;9.178;2023-02-01T01:39:52;2.85;;;1.40;;
37239;SDS011;23130;48.760;9.178;2023-02-01T01:42:17;3.10;;;1.42;;
37239;SDS011;23130;48.760;9.178;2023-02-01T01:47:54;3.67;;;1.10;;
37239;SDS011;23130;48.760;9.178;2023-02-01T01:50:26;2.63;;;1.27;;
37239;SDS011;23130;48.760;9.178;2023-02-01T01:52:55;2.65;;;1.40;;
37239;SDS011;23130;48.760;9.178;2023-02-01T01:55:24;3.55;;;1.60;;
37239;SDS011;23130;48.760;9.178;2023-02-01T01:57:57;4.40;;;1.80;;
37239;SDS011;23130;48.760;9.178;2023-02-01T02:00:26;2.28;;;1.35;;
37239;SDS011;23130;48.760;9.178;2023-02-01T02:02:59;2.35;;;1.13;;
37239;SDS011;23130;48.760;9.178;2023-02-01T02:05:31;4.07;;;2.10;;
37239;SDS011;23130;48.760;9.178;2023-02-01T02:07:58;3.78;;;1.88;;
37239;SDS011;23130;48.760;9.178;2023-02-01T02:10:26;3.63;;;1.70;;
37239;SDS011;23130;48.760;9.178;2023-02-01T02:13:12;2.67;;;1.75;;
37239;SDS011;23130;48.760;9.178;2023-02-01T02:15:41;2.75;;;1.48;;
37239;SDS011;23130;48.760;9.178;2023-02-01T02:18:15;5.05;;;1.38;;
37239;SDS011;23130;48.760;9.178;2023-02-01T02:29:00;3.42;;;1.83;;
37239;SDS011;23130;48.760;9.178;2023-02-01T02:31:56;3.28;;;2.28;;
37239;SDS011;23130;48.760;9.178;2023-02-01T02:37:24;3.97;;;2.20;;
37239;SDS011;23130;48.760;9.178;2023-02-01T02:42:54;2.88;;;1.80;;
37239;SDS011;23130;48.760;9.178;2023-02-01T02:45:50;3.25;;;1.58;;
37239;SDS011;23130;48.760;9.178;2023-02-01T02:48:42;3.55;;;1.88;;
37239;SDS011;23130;48.760;9.178;2023-02-01T02:51:16;3.22;;;1.88;;
37239;SDS011;23130;48.760;9.178;2023-02-01T02:54:12;4.25;;;1.77;;
37239;SDS011;23130;48.760;9.178;2023-02-01T02:56:58;4.63;;;2.28;;
37239;SDS011;23130;48.760;9.178;2023-02-01T02:59:47;3.08;;;1.98;;
37239;SDS011;23130;48.760;9.178;2023-02-01T03:02:31;3.40;;;1.88;;
37239;SDS011;23130;48.760;9.178;2023-02-01T03:05:17;4.13;;;2.22;;
37239;SDS011;23130;48.760;9.178;2023-02-01T03:13:06;4.50;;;1.88;;
37239;SDS011;23130;48.760;9.178;2023-02-01T03:21:24;4.63;;;2.63;;
37239;SDS011;23130;48.760;9.178;2023-02-01T03:23:55;5.45;;;2.25;;
37239;SDS011;23130;48.760;9.178;2023-02-01T03:26:25;4.60;;;2.60;;
37239;SDS011;23130;48.760;9.178;2023-02-01T03:29:08;4.85;;;2.55;;
37239;SDS011;23130;48.760;9.178;2023-02-01T03:31:41;3.85;;;2.40;;
37239;SDS011;23130;48.760;9.178;2023-02-01T03:34:07;4.07;;;2.20;;
37239;SDS011;23130;48.760;9.178;2023-02-01T03:36:35;4.85;;;3.00;;
37239;SDS011;23130;48.760;9.178;2023-02-01T03:39:11;4.50;;;2.78;;
37239;SDS011;23130;48.760;9.178;2023-02-01T03:41:45;3.90;;;2.38;;
37239;SDS011;23130;48.760;9.178;2023-02-01T03:44:20;4.65;;;2.67;;
37239;SDS011;23130;48.760;9.178;2023-02-01T03:49:28;3.85;;;2.60;;
37239;SDS011;23130;48.760;9.178;2023-02-01T03:51:58;3.58;;;2.58;;
37239;SDS011;23130;48.760;9.178;2023-02-01T03:54:25;5.65;;;2.97;;
37239;SDS011;23130;48.760;9.178;2023-02-01T03:56:53;5.18;;;3.10;;
37239;SDS011;23130;48.760;9.178;2023-02-01T03:59:22;6.90;;;3.13;;
37239;SDS011;23130;48.760;9.178;2023-02-01T04:01:49;4.05;;;2.42;;
37239;SDS011;23130;48.760;9.178;2023-02-01T04:04:14;3.38;;;2.03;;
37239;SDS011;23130;48.760;9.178;2023-02-01T04:06:45;3.85;;;2.53;;
37239;SDS011;23130;48.760;9.178;2023-02-01T04:09:11;6.00;;;2.35;;
37239;SDS011;23130;48.760;9.178;2023-02-01T04:11:37;3.58;;;2.10;;
37239;SDS011;23130;48.760;9.178;2023-02-01T04:14:02;4.80;;;2.33;;
37239;SDS011;23130;48.760;9.178;2023-02-01T04:16:29;3.95;;;2.20;;
37239;SDS011;23130;48.760;9.178;2023-02-01T04:18:56;6.05;;;2.72;;
37239;SDS011;23130;48.760;9.178;2023-02-01T04:21:23;3.20;;;1.88;;
37239;SDS011;23130;48.760;9.178;2023-02-01T04:23:52;3.28;;;2.40;;
37239;SDS011;23130;48.760;9.178;2023-02-01T04:26:18;6.90;;;3.00;;
37239;SDS011;23130;48.760;9.178;2023-02-01T04:28:44;3.28;;;2.15;;
37239;SDS011;23130;48.760;9.178;2023-02-01T04:31:12;5.28;;;2.72;;
37239;SDS011;23130;48.760;9.178;2023-02-01T04:33:39;6.47;;;2.70;;
37239;SDS011;23130;48.760;9.178;2023-02-01T04:36:04;6.78;;;3.13;;
37239;SDS011;23130;48.760;9.178;2023-02-01T04:38:30;4.68;;;2.72;;
37239;SDS011;23130;48.760;9.178;2023-02-01T04:40:57;3.65;;;2.67;;
37239;SDS011;23130;48.760;9.178;2023-02-01T04:43:23;5.68;;;3.00;;
37239;SDS011;23130;48.760;9.178;2023-02-01T04:45:49;3.67;;;2.75;;
37239;SDS011;23130;48.760;9.178;2023-02-01T04:48:18;4.30;;;2.10;;
37239;SDS011;23130;48.760;9.178;2023-02-01T04:50:45;3.47;;;2.30;;
37239;SDS011;23130;48.760;9.178;2023-02-01T04:53:12;3.13;;;2.10;;
37239;SDS011;23130;48.760;9.178;2023-02-01T04:55:42;4.93;;;2.38;;
37239;SDS011;23130;48.760;9.178;2023-02-01T04:58:08;4.43;;;2.08;;
37239;SDS011;23130;48.760;9.178;2023-02-01T05:00:33;4.18;;;1.92;;
37239;SDS011;23130;48.760;9.178;2023-02-01T05:02:59;3.10;;;2.08;;
37239;SDS011;23130;48.760;9.178;2023-02-01T05:05:25;2.42;;;1.60;;
37239;SDS011;23130;48.760;9.178;2023-02-01T05:07:51;6.63;;;1.90;;
37239;SDS011;23130;48.760;9.178;2023-02-01T05:10:17;3.00;;;1.52;;
37239;SDS011;23130;48.760;9.178;2023-02-01T05:12:45;4.20;;;2.20;;
37239;SDS011;23130;48.760;9.178;2023-02-01T05:15:30;5.40;;;2.25;;
37239;SDS011;23130;48.760;9.178;2023-02-01T05:17:59;3.55;;;1.70;;
37239;SDS011;23130;48.760;9.178;2023-02-01T05:20:24;2.63;;;1.50;;
37239;SDS011;23130;48.760;9.178;2023-02-01T05:22:50;2.20;;;1.33;;
37239;SDS011;23130;48.760;9.178;2023-02-01T05:25:16;2.30;;;1.30;;
37239;SDS011;23130;48.760;9.178;2023-02-01T05:27:42;3.03;;;1.80;;
37239;SDS011;23130;48.760;9.178;2023-02-01T05:30:08;2.78;;;1.77;;
37239;SDS011;23130;48.760;9.178;2023-02-01T05:32:34;2.83;;;1.40;;
37239;SDS011;23130;48.760;9.178;2023-02-01T05:35:02;2.90;;;1.67;;
37239;SDS011;23130;48.760;9.178;2023-02-01T05:37:27;3.78;;;1.92;;
37239;SDS011;23130;48.760;9.178;2023-02-01T05:39:53;5.45;;;1.58;;
37239;SDS011;23130;48.760;9.178;2023-02-01T05:42:18;4.90;;;1.70;;
37239;SDS011;23130;48.760;9.178;2023-02-01T05:44:44;3.10;;;1.75;;
37239;SDS011;23130;48.760;9.178;2023-02-01T05:47:10;3.95;;;1.33;;
37239;SDS011;23130;48.760;9.178;2023-02-01T05:49:35;3.13;;;1.50;;
37239;SDS011;23130;48.760;9.178;2023-02-01T05:52:01;2.47;;;1.70;;
37239;SDS011;23130;48.760;9.178;2023-02-01T05:54:27;2.83;;;1.70;;
37239;SDS011;23130;48.760;9.178;2023-02-01T05:56:53;3.35;;;2.17;;
37239;SDS011;23130;48.760;9.178;2023-02-01T05:59:18;2.95;;;1.58;;
37239;SDS011;23130;48.760;9.178;2023-02-01T06:01:44;4.28;;;2.17;;
37239;SDS011;23130;48.760;9.178;2023-02-01T06:04:09;3.38;;;1.63;;
37239;SDS011;23130;48.760;9.178;2023-02-01T06:06:35;4.28;;;2.30;;
37239;SDS011;23130;48.760;9.178;2023-02-01T06:09:01;3.75;;;1.75;;
37239;SDS011;23130;48.760;9.178;2023-02-01T06:11:27;4.32;;;1.90;;
37239;SDS011;23130;48.760;9.178;2023-02-01T06:13:53;4.47;;;2.22;;
37239;SDS011;23130;48.760;9.178;2023-02-01T06:16:20;3.58;;;1.65;;
37239;SDS011;23130;48.760;9.178;2023-02-01T06:18:46;2.50;;;1.42;;
37239;SDS011;23130;48.760;9.178;2023-02-01T06:21:12;3.78;;;1.83;;
37239;SDS011;23130;48.760;9.178;2023-02-01T06:23:39;2.90;;;1.92;;
37239;SDS011;23130;48.760;9.178;2023-02-01T06:26:05;2.83;;;1.45;;
37239;SDS011;23130;48.760;9.178;2023-02-01T06:28:34;5.65;;;1.55;;
37239;SDS011;23130;48.760;9.178;2023-02-01T06:31:03;3.65;;;2.10;;
37239;SDS011;23130;48.760;9.178;2023-02-01T06:33:31;3.38;;;1.65;;
37239;SDS011;23130;48.760;9.178;2023-02-01T06:35:59;2.85;;;1.60;;
37239;SDS011;23130;48.760;9.178;2023-02-01T06:38:26;3.28;;;1.63;;
37239;SDS011;23130;48.760;9.178;2023-02-01T06:40:53;2.53;;;1.30;;
37239;SDS011;23130;48.760;9.178;2023-02-01T06:43:20;3.17;;;1.80;;
37239;SDS011;23130;48.760;9.178;2023-02-01T06:45:46;7.05;;;1.70;;
37239;SDS011;23130;48.760;9.178;2023-02-01T06:48:12;4.28;;;1.73;;
37239;SDS011;23130;48.760;9.178;2023-02-01T06:50:37;4.95;;;1.95;;
37239;SDS011;23130;48.760;9.178;2023-02-01T06:53:03;3.13;;;2.03;;
37239;SDS011;23130;48.760;9.178;2023-02-01T06:55:29;5.15;;;2.13;;
37239;SDS011;23130;48.760;9.178;2023-02-01T06:57:54;3.92;;;2.35;;
37239;SDS011;23130;48.760;9.178;2023-02-01T07:00:21;4.22;;;2.25;;
37239;SDS011;23130;48.760;9.178;2023-02-01T07:02:47;4.03;;;1.88;;
37239;SDS011;23130;48.760;9.178;2023-02-01T07:05:13;3.03;;;1.42;;
37239;SDS011;23130;48.760;9.178;2023-02-01T07:07:38;4.90;;;1.73;;
37239;SDS011;23130;48.760;9.178;2023-02-01T07:10:04;3.60;;;1.85;;
37239;SDS011;23130;48.760;9.178;2023-02-01T07:12:30;3.83;;;1.85;;
37239;SDS011;23130;48.760;9.178;2023-02-01T07:14:55;3.05;;;1.83;;
37239;SDS011;23130;48.760;9.178;2023-02-01T07:17:21;3.22;;;1.58;;
37239;SDS011;23130;48.760;9.178;2023-02-01T07:19:47;3.50;;;1.48;;
37239;SDS011;23130;48.760;9.178;2023-02-01T07:22:15;3.55;;;2.20;;
37239;SDS011;23130;48.760;9.178;2023-02-01T07:24:41;3.13;;;1.70;;
37239;SDS011;23130;48.760;9.178;2023-02-01T07:27:07;2.85;;;1.33;;
37239;SDS011;23130;48.760;9.178;2023-02-01T07:29:33;5.43;;;1.90;;
37239;SDS011;23130;48.760;9.178;2023-02-01T07:31:58;3.33;;;1.38;;
37239;SDS011;23130;48.760;9.178;2023-02-01T07:34:25;2.15;;;1.35;;
37239;SDS011;23130;48.760;9.178;2023-02-01T07:36:51;4.45;;;2.20;;
37239;SDS011;23130;48.760;9.178;2023-02-01T07:39:16;3.10;;;1.45;;
37239;SDS011;23130;48.760;9.178;2023-02-01T07:41:42;5.20;;;1.50;;
37239;SDS011;23130;48.760;9.178;2023-02-01T07:44:07;2.60;;;1.83;;
37239;SDS011;23130;48.760;9.178;2023-02-01T07:46:33;3.78;;;2.30;;
37239;SDS011;23130;48.760;9.178;2023-02-01T07:48:58;3.10;;;1.73;;
37239;SDS011;23130;48.760;9.178;2023-02-01T07:51:24;4.00;;;1.75;;
37239;SDS011;23130;48.760;9.178;2023-02-01T07:53:50;3.10;;;1.60;;
37239;SDS011;23130;48.760;9.178;2023-02-01T07:56:16;3.50;;;1.63;;
37239;SDS011;23130;48.760;9.178;2023-02-01T07:58:47;3.47;;;1.58;;
37239;SDS011;23130;48.760;9.178;2023-02-01T08:01:18;5.40;;;1.58;;
37239;SDS011;23130;48.760;9.178;2023-02-01T08:03:48;4.00;;;2.08;;
37239;SDS011;23130;48.760;9.178;2023-02-01T08:06:34;4.97;;;1.85;;
37239;SDS011;23130;48.760;9.178;2023-02-01T08:09:00;4.55;;;1.77;;
37239;SDS011;23130;48.760;9.178;2023-02-01T08:11:27;2.50;;;1.52;;
37239;SDS011;23130;48.760;9.178;2023-02-01T08:13:53;5.50;;;2.05;;
37239;SDS011;23130;48.760;9.178;2023-02-01T08:16:19;3.08;;;1.55;;
37239;SDS011;23130;48.760;9.178;2023-02-01T08:18:45;5.93;;;2.00;;
37239;SDS011;23130;48.760;9.178;2023-02-01T08:21:12;5.97;;;1.67;;
37239;SDS011;23130;48.760;9.178;2023-02-01T08:23:40;2.92;;;1.95;;
37239;SDS011;23130;48.760;9.178;2023-02-01T08:28:47;7.40;;;2.25;;
37239;SDS011;23130;48.760;9.178;2023-02-01T08:31:17;4.72;;;2.25;;
37239;SDS011;23130;48.760;9.178;2023-02-01T08:33:48;5.10;;;2.08;;
37239;SDS011;23130;48.760;9.178;2023-02-01T08:36:16;4.50;;;1.85;;
37239;SDS011;23130;48.760;9.178;2023-02-01T08:38:41;3.55;;;2.47;;
37239;SDS011;23130;48.760;9.178;2023-02-01T08:41:11;4.93;;;2.08;;
37239;SDS011;23130;48.760;9.178;2023-02-01T08:43:42;3.97;;;2.08;;
37239;SDS011;23130;48.760;9.178;2023-02-01T08:46:08;5.30;;;2.20;;
37239;SDS011;23130;48.760;9.178;2023-02-01T08:48:34;4.82;;;1.75;;
37239;SDS011;23130;48.760;9.178;2023-02-01T08:51:01;4.13;;;2.03;;
37239;SDS011;23130;48.760;9.178;2023-02-01T08:53:28;5.65;;;2.10;;
37239;SDS011;23130;48.760;9.178;2023-02-01T08:55:53;6.75;;;1.67;;
37239;SDS011;23130;48.760;9.178;2023-02-01T08:58:19;4.68;;;2.03;;
37239;SDS011;23130;48.760;9.178;2023-02-01T09:00:46;7.53;;;2.25;;
37239;SDS011;23130;48.760;9.178;2023-02-01T09:03:13;6.15;;;2.38;;
37239;SDS011;23130;48.760;9.178;2023-02-01T09:05:39;6.10;;;1.98;;
37239;SDS011;23130;48.760;9.178;2023-02-01T09:08:04;4.90;;;1.98;;
37239;SDS011;23130;48.760;9.178;2023-02-01T09:10:31;5.07;;;2.42;;
37239;SDS011;23130;48.760;9.178;2023-02-01T09:12:56;4.22;;;1.83;;
37239;SDS011;23130;48.760;9.178;2023-02-01T09:15:22;7.57;;;2.80;;
37239;SDS011;23130;48.760;9.178;2023-02-01T09:17:47;8.30;;;3.08;;
37239;SDS011;23130;48.760;9.178;2023-02-01T09:20:14;4.40;;;1.90;;
37239;SDS011;23130;48.760;9.178;2023-02-01T09:22:40;5.45;;;2.13;;
37239;SDS011;23130;48.760;9.178;2023-02-01T09:25:06;8.95;;;2.20;;
37239;SDS011;23130;48.760;9.178;2023-02-01T09:27:32;6.38;;;2.20;;
37239;SDS011;23130;48.760;9.178;2023-02-01T09:29:58;7.97;;;2.67;;
37239;SDS011;23130;48.760;9.178;2023-02-01T09:32:23;8.43;;;2.55;;
37239;SDS011;23130;48.760;9.178;2023-02-01T09:34:50;6.10;;;2.55;;
37239;SDS011;23130;48.760;9.178;2023-02-01T09:37:16;7.03;;;1.70;;
37239;SDS011;23130;48.760;9.178;2023-02-01T09:39:42;6.63;;;2.80;;
37239;SDS011;23130;48.760;9.178;2023-02-01T09:45:06;6.22;;;1.98;;
37239;SDS011;23130;48.760;9.178;2023-02-01T09:47:43;6.43;;;2.13;;
37239;SDS011;23130;48.760;9.178;2023-02-01T09:50:21;5.05;;;2.10;;
37239;SDS011;23130;48.760;9.178;2023-02-01T09:52:57;9.45;;;2.45;;
37239;SDS011;23130;48.760;9.178;2023-02-01T09:55:32;5.70;;;1.73;;
37239;SDS011;23130;48.760;9.178;2023-02-01T09:58:17;10.32;;;1.95;;
37239;SDS011;23130;48.760;9.178;2023-02-01T10:00:53;14.90;;;2.30;;
37239;SDS011;23130;48.760;9.178;2023-02-01T10:03:20;10.75;;;1.73;;
37239;SDS011;23130;48.760;9.178;2023-02-01T10:05:58;9.45;;;2.80;;
37239;SDS011;23130;48.760;9.178;2023-02-01T10:14:30;13.20;;;2.35;;
37239;SDS011;23130;48.760;9.178;2023-02-01T10:17:16;7.95;;;2.17;;
37239;SDS011;23130;48.760;9.178;2023-02-01T10:20:20;5.30;;;1.88;;
37239;SDS011;23130;48.760;9.178;2023-02-01T10:23:14;7.32;;;2.28;;
37239;SDS011;23130;48.760;9.178;2023-02-01T10:25:55;7.35;;;2.65;;
37239;SDS011;23130;48.760;9.178;2023-02-01T10:28:29;8.00;;;2.40;;
37239;SDS011;23130;48.760;9.178;2023-02-01T10:30:58;9.35;;;1.88;;
37239;SDS011;23130;48.760;9.178;2023-02-01T10:33:39;6.88;;;1.83;;
37239;SDS011;23130;48.760;9.178;2023-02-01T10:36:15;8.77;;;1.60;;
37239;SDS011;23130;48.760;9.178;2023-02-01T10:38:58;6.35;;;1.67;;
37239;SDS011;23130;48.760;9.178;2023-02-01T10:41:24;14.07;;;2.25;;
37239;SDS011;23130;48.760;9.178;2023-02-01T10:43:59;9.73;;;2.17;;
37239;SDS011;23130;48.760;9.178;2023-02-01T10:46:29;10.35;;;2.35;;
37239;SDS011;23130;48.760;9.178;2023-02-01T10:48:56;8.93;;;1.95;;
37239;SDS011;23130;48.760;9.178;2023-02-01T10:54:18;12.73;;;2.53;;
37239;SDS011;23130;48.760;9.178;2023-02-01T10:56:46;9.43;;;2.15;;
37239;SDS011;23130;48.760;9.178;2023-02-01T10:59:34;12.75;;;2.42;;
37239;SDS011;23130;48.760;9.178;2023-02-01T11:02:02;10.98;;;2.17;;
37239;SDS011;23130;48.760;9.178;2023-02-01T11:04:40;11.27;;;2.08;;
37239;SDS011;23130;48.760;9.178;2023-02-01T11:09:40;7.60;;;1.77;;
37239;SDS011;23130;48.760;9.178;2023-02-01T11:12:20;8.38;;;1.92;;
37239;SDS011;23130;48.760;9.178;2023-02-01T11:14:50;9.20;;;2.38;;
37239;SDS011;23130;48.760;9.178;2023-02-01T11:19:47;11.02;;;1.95;;
37239;SDS011;23130;48.760;9.178;2023-02-01T11:22:25;13.60;;;2.45;;
37239;SDS011;23130;48.760;9.178;2023-02-01T11:24:52;10.88;;;2.92;;
37239;SDS011;23130;48.760;9.178;2023-02-01T11:27:20;12.10;;;2.53;;
37239;SDS011;23130;48.760;9.178;2023-02-01T11:29:49;11.60;;;2.50;;
37239;SDS011;23130;48.760;9.178;2023-02-01T11:32:17;11.73;;;2.15;;
37239;SDS011;23130;48.760;9.178;2023-02-01T11:34:51;9.80;;;2.75;;
37239;SDS011;23130;48.760;9.178;2023-02-01T11:37:24;7.20;;;1.92;;
37239;SDS011;23130;48.760;9.178;2023-02-01T11:40:03;14.07;;;1.95;;
37239;SDS011;23130;48.760;9.178;2023-02-01T11:42:57;7.43;;;1.80;;
37239;SDS011;23130;48.760;9.178;2023-02-01T11:45:26;8.82;;;1.42;;
37239;SDS011;23130;48.760;9.178;2023-02-01T11:47:54;11.93;;;1.70;;
37239;SDS011;23130;48.760;9.178;2023-02-01T11:53:09;7.78;;;2.00;;
37239;SDS011;23130;48.760;9.178;2023-02-01T11:55:44;10.80;;;2.10;;
37239;SDS011;23130;48.760;9.178;2023-02-01T12:09:08;8.63;;;2.05;;
37239;SDS011;23130;48.760;9.178;2023-02-01T12:12:07;6.60;;;1.80;;
37239;SDS011;23130;48.760;9.178;2023-02-01T12:14:51;10.00;;;3.03;;
37239;SDS011;23130;48.760;9.178;2023-02-01T12:33:45;9.55;;;1.80;;
37239;SDS011;23130;48.760;9.178;2023-02-01T12:42:21;4.93;;;2.13;;
37239;SDS011;23130;48.760;9.178;2023-02-01T12:44:56;11.13;;;2.42;;
37239;SDS011;23130;48.760;9.178;2023-02-01T12:47:32;12.80;;;3.28;;
37239;SDS011;23130;48.760;9.178;2023-02-01T12:50:13;9.75;;;2.50;;
37239;SDS011;23130;48.760;9.178;2023-02-01T12:52:48;9.65;;;2.15;;
37239;SDS011;23130;48.760;9.178;2023-02-01T13:01:05;7.50;;;1.63;;
37239;SDS011;23130;48.760;9.178;2023-02-01T13:03:54;6.70;;;1.65;;
37239;SDS011;23130;48.760;9.178;2023-02-01T13:06:47;6.35;;;2.05;;
37239;SDS011;23130;48.760;9.178;2023-02-01T13:11:53;8.43;;;1.80;;
37239;SDS011;23130;48.760;9.178;2023-02-01T13:17:24;9.50;;;1.83;;
37239;SDS011;23130;48.760;9.178;2023-02-01T13:19:59;9.95;;;1.85;;
37239;SDS011;23130;48.760;9.178;2023-02-01T13:22:54;7.05;;;1.95;;
37239;SDS011;23130;48.760;9.178;2023-02-01T13:25:27;5.60;;;1.50;;
37239;SDS011;23130;48.760;9.178;2023-02-01T13:30:33;3.95;;;1.90;;
37239;SDS011;23130;48.760;9.178;2023-02-01T13:41:39;6.18;;;1.98;;
37239;SDS011;23130;48.760;9.178;2023-02-01T13:44:37;9.45;;;2.20;;
37239;SDS011;23130;48.760;9.178;2023-02-01T13:47:09;10.32;;;2.13;;
37239;SDS011;23130;48.760;9.178;2023-02-01T13:50:01;10.02;;;2.17;;
37239;SDS011;23130;48.760;9.178;2023-02-01T13:52:50;9.85;;;2.13;;
37239;SDS011;23130;48.760;9.178;2023-02-01T13:55:31;13.25;;;2.65;;
37239;SDS011;23130;48.760;9.178;2023-02-01T13:58:22;8.63;;;1.50;;
37239;SDS011;23130;48.760;9.178;2023-02-01T14:04:03;12.00;;;2.22;;
37239;SDS011;23130;48.760;9.178;2023-02-01T14:19:27;7.95;;;2.00;;
37239;SDS011;23130;48.760;9.178;2023-02-01T14:21:54;10.63;;;2.30;;
37239;SDS011;23130;48.760;9.178;2023-02-01T14:24:35;9.57;;;1.63;;
37239;SDS011;23130;48.760;9.178;2023-02-01T14:29:37;10.77;;;1.80;;
37239;SDS011;23130;48.760;9.178;2023-02-01T14:32:22;5.97;;;1.70;;
37239;SDS011;23130;48.760;9.178;2023-02-01T14:34:53;7.70;;;1.40;;
37239;SDS011;23130;48.760;9.178;2023-02-01T14:39:54;7.75;;;1.40;;
37239;SDS011;23130;48.760;9.178;2023-02-01T14:50:24;7.18;;;1.75;;
37239;SDS011;23130;48.760;9.178;2023-02-01T15:01:03;8.00;;;2.00;;
37239;SDS011;23130;48.760;9.178;2023-02-01T15:04:05;7.63;;;1.63;;
37239;SDS011;23130;48.760;9.178;2023-02-01T15:09:11;8.43;;;2.00;;
37239;SDS011;23130;48.760;9.178;2023-02-01T15:11:59;7.65;;;3.17;;
37239;SDS011;23130;48.760;9.178;2023-02-01T15:14:41;6.68;;;2.20;;
37239;SDS011;23130;48.760;9.178;2023-02-01T15:20:00;10.82;;;2.58;;
37239;SDS011;23130;48.760;9.178;2023-02-01T15:22:29;6.57;;;1.60;;
37239;SDS011;23130;48.760;9.178;2023-02-01T15:24:59;8.32;;;2.58;;
37239;SDS011;23130;48.760;9.178;2023-02-01T15:27:25;7.57;;;1.98;;
37239;SDS011;23130;48.760;9.178;2023-02-01T15:29:52;9.93;;;2.20;;
37239;SDS011;23130;48.760;9.178;2023-02-01T15:32:28;7.22;;;1.83;;
37239;SDS011;23130;48.760;9.178;2023-02-01T15:34:58;8.40;;;1.90;;
37239;SDS011;23130;48.760;9.178;2023-02-01T15:37:25;7.20;;;1.77;;
37239;SDS011;23130;48.760;9.178;2023-02-01T15:42:36;10.80;;;1.88;;
37239;SDS011;23130;48.760;9.178;2023-02-01T15:45:21;10.68;;;1.73;;
37239;SDS011;23130;48.760;9.178;2023-02-01T15:47:51;8.10;;;1.92;;
37239;SDS011;23130;48.760;9.178;2023-02-01T15:50:20;6.25;;;1.67;;
37239;SDS011;23130;48.760;9.178;2023-02-01T15:52:46;8.90;;;2.00;;
37239;SDS011;23130;48.760;9.178;2023-02-01T15:55:20;13.48;;;2.22;;
37239;SDS011;23130;48.760;9.178;2023-02-01T15:57:49;5.28;;;1.73;;
37239;SDS011;23130;48.760;9.178;2023-02-01T16:02:57;6.35;;;1.80;;
37239;SDS011;23130;48.760;9.178;2023-02-01T16:05:39;5.63;;;1.52;;
37239;SDS011;23130;48.760;9.178;2023-02-01T16:10:45;7.07;;;1.60;;
37239;SDS011;23130;48.760;9.178;2023-02-01T16:13:12;7.10;;;1.60;;
37239;SDS011;23130;48.760;9.178;2023-02-01T16:15:39;9.13;;;2.10;;
37239;SDS011;23130;48.760;9.178;2023-02-01T16:18:05;7.88;;;1.95;;
37239;SDS011;23130;48.760;9.178;2023-02-01T16:20:35;7.78;;;2.00;;
37239;SDS011;23130;48.760;9.178;2023-02-01T16:23:02;9.48;;;2.30;;
37239;SDS011;23130;48.760;9.178;2023-02-01T16:25:28;5.55;;;1.75;;
37239;SDS011;23130;48.760;9.178;2023-02-01T16:27:54;4.88;;;1.55;;
37239;SDS011;23130;48.760;9.178;2023-02-01T16:30:20;7.00;;;1.60;;
37239;SDS011;23130;48.760;9.178;2023-02-01T16:32:52;9.20;;;2.58;;
37239;SDS011;23130;48.760;9.178;2023-02-01T16:37:50;8.70;;;1.58;;
37239;SDS011;23130;48.760;9.178;2023-02-01T16:40:16;10.95;;;2.20;;
37239;SDS011;23130;48.760;9.178;2023-02-01T16:42:43;8.13;;;1.73;;
37239;SDS011;23130;48.760;9.178;2023-02-01T16:45:08;10.02;;;2.03;;
37239;SDS011;23130;48.760;9.178;2023-02-01T16:47:36;6.75;;;1.67;;
37239;SDS011;23130;48.760;9.178;2023-02-01T16:50:03;7.22;;;1.92;;
37239;SDS011;23130;48.760;9.178;2023-02-01T16:52:29;6.95;;;1.58;;
37239;SDS011;23130;48.760;9.178;2023-02-01T16:54:54;4.55;;;2.10;;
37239;SDS011;23130;48.760;9.178;2023-02-01T16:57:20;5.43;;;1.83;;
37239;SDS011;23130;48.760;9.178;2023-02-01T16:59:49;6.32;;;1.65;;
37239;SDS011;23130;48.760;9.178;2023-02-01T17:02:15;7.65;;;1.75;;
37239;SDS011;23130;48.760;9.178;2023-02-01T17:04:47;8.18;;;2.13;;
37239;SDS011;23130;48.760;9.178;2023-02-01T17:07:17;7.60;;;1.83;;
37239;SDS011;23130;48.760;9.178;2023-02-01T17:09:44;7.43;;;1.95;;
37239;SDS011;23130;48.760;9.178;2023-02-01T17:12:21;3.92;;;1.40;;
37239;SDS011;23130;48.760;9.178;2023-02-01T17:14:52;9.98;;;2.40;;
37239;SDS011;23130;48.760;9.178;2023-02-01T17:17:18;9.73;;;2.53;;
37239;SDS011;23130;48.760;9.178;2023-02-01T17:19:46;7.38;;;1.30;;
37239;SDS011;23130;48.760;9.178;2023-02-01T17:22:17;9.30;;;2.33;;
37239;SDS011;23130;48.760;9.178;2023-02-01T17:24:43;9.88;;;2.45;;
37239;SDS011;23130;48.760;9.178;2023-02-01T17:27:09;12.50;;;2.45;;
37239;SDS011;23130;48.760;9.178;2023-02-01T17:29:34;12.40;;;1.65;;
37239;SDS011;23130;48.760;9.178;2023-02-01T17:32:00;10.40;;;2.50;;
37239;SDS011;23130;48.760;9.178;2023-02-01T17:34:27;11.27;;;2.10;;
37239;SDS011;23130;48.760;9.178;2023-02-01T17:36:53;11.52;;;2.15;;
37239;SDS011;23130;48.760;9.178;2023-02-01T17:39:18;9.35;;;1.92;;
37239;SDS011;23130;48.760;9.178;2023-02-01T17:42:04;8.85;;;1.92;;
37239;SDS011;23130;48.760;9.178;2023-02-01T17:44:30;13.55;;;3.15;;
37239;SDS011;23130;48.760;9.178;2023-02-01T17:46:56;8.07;;;1.90;;